Time;durP1;ratioP1;P1;durP2;ratioP2;P2;SDS_P1;SDS_P2;PMS_P1;PMS_P2;Temp;Humidity;BMP_temperature;BMP_pressure;BME280_temperature;BME280_humidity;BME280_pressure;Samples;Min_cycle;Max_cycle;Signal;HPM_P1;HPM_P2
2023/01/28 00:09:31;;;;;;;32.90;14.90;;;;;;;0.61;80.84;100874.56;30851932;28;97594;-78
2023/01/28 00:24:32;;;;;;;28.63;13.27;;;;;;;0.59;81.48;100870.34;30852135;28;97499;-77
2023/01/28 00:39:32;;;;;;;26.45;13.30;;;;;;;0.47;81.06;100861.44;30853959;28;97528;-78
2023/01/28 00:54:32;;;;;;;18.75;10.00;;;;;;;0.45;81.22;100856.28;30857474;28;96967;-78
2023/01/28 01:09:33;;;;;;;19.98;11.55;;;;;;;0.42;81.48;100842.50;30871076;28;97137;-77
2023/01/28 01:24:33;;;;;;;23.38;10.93;;;;;;;0.42;81.55;100868.72;30870104;28;96858;-77
2023/01/28 01:39:34;;;;;;;22.33;11.07;;;;;;;0.44;81.34;100882.59;30869539;28;96681;-78
2023/01/28 01:54:36;;;;;;;21.85;12.15;;;;;;;0.35;81.09;100901.47;30868515;28;96542;-77
2023/01/28 02:09:37;;;;;;;23.05;10.45;;;;;;;0.38;81.93;100909.16;30865556;28;96809;-78
2023/01/28 02:24:46;;;;;;;26.42;12.25;;;;;;;0.39;81.25;100911.69;30864355;28;96817;-78
2023/01/28 02:39:51;;;;;;;15.90;9.52;;;;;;;0.33;81.51;100907.63;30862424;28;97984;-78
2023/01/28 02:55:12;;;;;;;15.23;8.57;;;;;;;0.22;81.11;100909.16;30862578;28;97185;-77
2023/01/28 03:10:16;;;;;;;15.05;8.30;;;;;;;0.06;81.40;100914.41;30861317;28;97487;-78
2023/01/28 03:40:51;;;;;;;18.63;8.90;;;;;;;0.11;81.71;100917.59;30859520;28;96611;-78
2023/01/28 03:55:53;;;;;;;18.40;10.70;;;;;;;0.12;81.62;100924.53;30857530;28;97587;-78
2023/01/28 04:10:53;;;;;;;17.65;9.27;;;;;;;0.08;81.75;100938.75;30855259;28;96739;-77
2023/01/28 04:25:54;;;;;;;17.20;9.30;;;;;;;0.02;81.39;100932.06;30852627;28;96761;-77
2023/01/28 04:40:55;;;;;;;17.02;9.30;;;;;;;-0.11;81.06;100949.38;30873020;28;96744;-77
2023/01/28 04:55:56;;;;;;;22.40;10.48;;;;;;;-0.06;81.82;100953.44;30872657;28;97205;-78
2023/01/28 05:10:56;;;;;;;16.38;8.98;;;;;;;0.01;81.34;100971.44;30842709;28;98597;-78
2023/01/28 05:25:57;;;;;;;23.45;10.95;;;;;;;-0.12;81.53;100973.88;30748540;28;96734;-78
2023/01/28 05:40:57;;;;;;;24.02;11.68;;;;;;;-0.05;81.40;100983.94;30747740;28;96721;-78
2023/01/28 05:55:57;;;;;;;23.88;12.73;;;;;;;-0.10;81.49;100991.19;30746489;28;96799;-78
2023/01/28 06:10:58;;;;;;;17.38;11.35;;;;;;;-0.18;81.46;100990.75;30744877;28;96633;-77
2023/01/28 06:25:58;;;;;;;20.00;11.60;;;;;;;-0.21;81.63;101004.03;30741839;28;96781;-78
2023/01/28 06:40:58;;;;;;;19.92;11.98;;;;;;;-0.20;81.30;101022.28;30741535;28;96714;-78
2023/01/28 06:55:59;;;;;;;22.23;12.02;;;;;;;-0.31;81.08;101034.25;30737732;28;96564;-77
2023/01/28 07:10:59;;;;;;;24.25;11.00;;;;;;;-0.30;80.78;101049.88;30737973;28;97598;-79
2023/01/28 07:26:03;;;;;;;18.95;11.10;;;;;;;-0.23;81.13;101084.44;30734423;28;97284;-77
2023/01/28 07:41:04;;;;;;;19.77;10.93;;;;;;;-0.21;80.85;101074.72;30830187;28;96703;-78
2023/01/28 07:56:05;;;;;;;20.45;11.63;;;;;;;-0.12;81.21;101074.25;30841870;28;97432;-67
2023/01/28 08:11:09;;;;;;;22.75;11.07;;;;;;;-0.11;80.97;101082.97;30804934;28;97107;-67
2023/01/28 08:26:10;;;;;;;20.60;11.38;;;;;;;-0.12;80.54;101100.47;30826898;28;97695;-79
2023/01/28 08:41:10;;;;;;;25.17;13.30;;;;;;;-0.07;80.75;101098.47;30745726;28;96593;-65
2023/01/28 08:56:10;;;;;;;20.13;12.60;;;;;;;0.04;80.56;101099.66;30729686;28;97442;-70
2023/01/28 09:11:11;;;;;;;24.15;12.85;;;;;;;0.19;80.37;101101.47;30728557;28;96691;-65
2023/01/28 09:26:11;;;;;;;21.77;11.52;;;;;;;0.20;79.94;101120.66;30857561;28;97306;-68
2023/01/28 09:41:25;;;;;;;23.98;13.63;;;;;;;0.28;80.25;101131.59;30858273;28;96739;-66
2023/01/28 09:56:33;;;;;;;20.97;10.90;;;;;;;0.20;79.83;101132.00;30856530;28;96813;-66
2023/01/28 10:12:00;;;;;;;19.90;10.95;;;;;;;0.10;79.71;101138.66;30852639;28;98708;-67
2023/01/28 10:27:04;;;;;;;18.25;10.13;;;;;;;0.13;79.72;101128.00;30862927;28;97296;-66
2023/01/28 10:42:31;;;;;;;13.77;8.53;;;;;;;0.35;79.71;101134.75;30858648;28;96621;-70
2023/01/28 10:57:41;;;;;;;16.88;10.20;;;;;;;0.44;78.93;101129.84;30860276;28;97088;-65
2023/01/28 11:12:41;;;;;;;19.90;11.68;;;;;;;0.69;79.31;101125.06;30858706;28;97669;-67
2023/01/28 11:27:47;;;;;;;17.05;11.27;;;;;;;0.90;78.69;101123.03;30857115;28;96690;-65
2023/01/28 11:42:49;;;;;;;13.80;8.75;;;;;;;1.16;78.63;101122.44;30855007;28;97384;-65
2023/01/28 11:57:53;;;;;;;14.68;8.55;;;;;;;1.20;77.65;101123.09;30855927;28;96604;-65
2023/01/28 12:13:02;;;;;;;9.45;6.55;;;;;;;1.12;77.14;101125.31;30855458;28;96643;-64
2023/01/28 12:28:33;;;;;;;7.00;5.25;;;;;;;1.09;76.90;101125.50;30853018;28;96681;-65
2023/01/28 12:44:15;;;;;;;8.77;6.07;;;;;;;0.73;76.01;101119.56;30850781;28;96713;-65
2023/01/28 12:59:27;;;;;;;10.82;6.35;;;;;;;0.48;75.67;101136.63;30870011;28;96668;-66
2023/01/28 13:14:30;;;;;;;9.85;5.63;;;;;;;0.19;75.49;101143.38;30870256;28;96714;-65
2023/01/28 13:29:33;;;;;;;9.52;5.78;;;;;;;0.05;75.35;101143.28;30868141;28;96702;-67
2023/01/28 13:44:35;;;;;;;10.02;5.28;;;;;;;-0.05;75.34;101146.34;30806867;28;97533;-69
2023/01/28 14:00:26;;;;;;;9.00;5.47;;;;;;;-0.15;74.87;101160.00;30813056;28;98055;-68
2023/01/28 14:15:32;;;;;;;5.32;3.75;;;;;;;-0.21;74.84;101171.63;30916264;28;96867;-68
2023/01/28 14:30:51;;;;;;;8.07;4.13;;;;;;;-0.35;74.40;101172.31;30741668;28;96642;-65
2023/01/28 14:46:20;;;;;;;5.93;3.97;;;;;;;-0.52;73.86;101181.84;30736944;28;97254;-64
2023/01/28 15:01:24;;;;;;;7.40;4.18;;;;;;;-0.61;73.61;101192.75;30726099;28;97017;-65
2023/01/28 15:16:29;;;;;;;5.37;3.43;;;;;;;-0.74;73.23;101205.59;30730931;28;97344;-64
2023/01/28 15:31:37;;;;;;;9.17;3.97;;;;;;;-0.90;73.15;101200.22;30736172;28;96732;-66
2023/01/28 15:46:39;;;;;;;4.03;2.92;;;;;;;-1.02;72.78;101214.69;30735365;28;97405;-66
2023/01/28 16:01:39;;;;;;;6.47;2.90;;;;;;;-1.17;72.48;101225.88;30732589;28;96888;-65
2023/01/28 16:16:40;;;;;;;9.68;3.50;;;;;;;-1.33;71.81;101235.31;30776449;28;97271;-64
2023/01/28 16:31:41;;;;;;;12.38;5.00;;;;;;;-1.43;71.53;101233.09;30842394;28;97438;-65
2023/01/28 16:46:42;;;;;;;9.82;4.45;;;;;;;-1.47;71.42;101244.59;30837463;28;97327;-63
2023/01/28 17:01:43;;;;;;;12.60;5.22;;;;;;;-1.51;71.40;101243.03;30838330;28;97384;-66
2023/01/28 17:16:44;;;;;;;7.28;4.53;;;;;;;-1.55;70.89;101236.25;30839677;28;97385;-66
2023/01/28 17:31:44;;;;;;;8.25;5.18;;;;;;;-1.65;70.37;101245.38;30839642;28;97142;-66
2023/01/28 17:46:45;;;;;;;9.75;5.13;;;;;;;-1.68;70.28;101259.47;30856531;28;97477;-66
2023/01/28 18:01:46;;;;;;;6.15;4.63;;;;;;;-1.81;69.36;101285.22;30754888;28;97269;-66
2023/01/28 18:16:47;;;;;;;7.00;5.47;;;;;;;-1.81;69.36;101298.28;30732577;28;96992;-66
2023/01/28 18:31:48;;;;;;;7.75;4.70;;;;;;;-1.80;69.23;101300.00;30731915;28;97193;-66
2023/01/28 18:46:49;;;;;;;11.55;6.55;;;;;;;-1.73;69.54;101309.28;30728327;28;97068;-65
2023/01/28 19:01:50;;;;;;;9.95;4.72;;;;;;;-1.72;68.92;101329.28;30742385;28;96902;-67
2023/01/28 19:16:51;;;;;;;14.10;7.28;;;;;;;-1.67;68.86;101330.84;30726872;28;97283;-65
2023/01/28 19:31:51;;;;;;;6.35;3.75;;;;;;;-1.73;68.17;101319.72;30726628;28;97269;-66
2023/01/28 19:46:52;;;;;;;7.22;3.55;;;;;;;-1.73;67.97;101324.94;30723737;28;97224;-65
2023/01/28 20:01:52;;;;;;;5.35;3.25;;;;;;;-1.64;67.69;101325.47;30733375;28;96862;-65
2023/01/28 20:16:53;;;;;;;9.80;4.03;;;;;;;-1.49;67.57;101324.00;30727899;28;97333;-67
2023/01/28 20:31:54;;;;;;;7.57;3.70;;;;;;;-1.54;66.99;101348.56;30809780;28;97668;-66
2023/01/28 20:46:55;;;;;;;6.82;3.70;;;;;;;-1.47;66.77;101348.31;30852745;28;96695;-68
2023/01/28 21:01:55;;;;;;;16.48;5.97;;;;;;;-1.54;66.81;101330.25;30791670;28;98177;-68
2023/01/28 21:16:56;;;;;;;15.20;5.80;;;;;;;-1.56;66.11;101339.06;30819256;28;96812;-66
2023/01/28 21:31:56;;;;;;;9.52;5.72;;;;;;;-1.51;66.55;101352.81;30798205;28;96749;-66
2023/01/28 21:46:56;;;;;;;12.18;5.53;;;;;;;-1.49;66.14;101353.59;30796183;28;97974;-66
2023/01/28 22:02:11;;;;;;;10.77;4.90;;;;;;;-1.39;66.47;101357.53;30797541;28;96986;-66
2023/01/28 22:17:11;;;;;;;9.43;5.37;;;;;;;-1.52;66.38;101314.50;30750305;28;96665;-68
2023/01/28 22:32:11;;;;;;;8.90;4.63;;;;;;;-1.75;66.69;101318.09;30742241;28;96693;-66
2023/01/28 22:47:12;;;;;;;9.35;4.43;;;;;;;-1.89;67.15;101326.50;30742838;28;96616;-66
2023/01/28 23:02:12;;;;;;;6.55;3.88;;;;;;;-1.85;67.95;101317.63;30756394;28;96750;-66
2023/01/28 23:32:31;;;;;;;4.65;2.78;;;;;;;-2.02;68.82;101314.81;30738189;28;97093;-66
2023/01/28 23:47:32;;;;;;;10.85;4.63;;;;;;;-2.32;68.54;101323.81;30736785;28;97350;-66
